Corunna, Indiana
Current Conditions -  °F | °C
As of 4:55 AM on Friday 19 Dec 2014 (Local Time) from KGWB Reporting Station
Overcast Overcast  
Wind Chill: 21°   Ceiling: 1400
Heat Index: 28°   Visibility: 7mi
Dew Point: 23°   Wind: 7mph
Humidity: 80%   Direction: 280°W
Pressure: 30.23"   Gusts: NA
Location:  41.44°N, 85.15°W
Report Text: KGWB 190955Z AUTO 28006KT 7SM SCT010 BKN014 OVC024 M02/M05 A3023 RMK AO2
Loading
Personal Weather Stations






























Interactive Weather Map New forecast layout! Learn more

10-Day Weather Forecast

Advertisements
Track Severe Weather on mobile